createdAt,value
2023-05-13T00:01:00.258Z,95889.66
2023-05-13T00:03:26.859Z,95883.47
2023-05-13T00:06:04.059Z,95894.00
2023-05-13T00:08:39.414Z,95899.19
2023-05-13T00:11:18.282Z,95898.66
2023-05-13T00:13:46.989Z,95900.56
2023-05-13T00:16:14.035Z,95895.66
2023-05-13T00:18:40.626Z,95899.63
2023-05-13T00:21:30.557Z,95891.38
2023-05-13T00:24:08.512Z,95890.38
2023-05-13T00:27:01.731Z,95893.75
2023-05-13T00:29:31.442Z,95897.53
2023-05-13T00:31:58.049Z,95901.94
2023-05-13T00:34:24.789Z,95898.66
2023-05-13T00:36:51.353Z,95900.69
2023-05-13T00:42:20.817Z,95899.41
2023-05-13T00:44:47.405Z,95907.75
2023-05-13T00:47:14.260Z,95911.97
2023-05-13T00:49:41.089Z,95911.38
2023-05-13T00:52:07.984Z,95920.69
2023-05-13T00:54:34.810Z,95911.09
2023-05-13T00:57:01.531Z,95921.94
2023-05-13T00:59:29.496Z,95919.88
2023-05-13T01:01:56.901Z,95914.38
2023-05-13T01:04:23.731Z,95919.78
2023-05-13T01:06:50.649Z,95926.44
2023-05-13T01:09:17.231Z,95926.47
2023-05-13T01:11:43.798Z,95927.19
2023-05-13T01:14:11.165Z,95932.56
2023-05-13T01:16:37.739Z,95935.53
2023-05-13T01:19:04.900Z,95929.72
2023-05-13T01:21:31.548Z,95937.34
2023-05-13T01:23:58.101Z,95933.56
2023-05-13T01:26:25.025Z,95947.81
2023-05-13T01:28:51.552Z,95944.31
2023-05-13T01:31:19.182Z,95940.59
2023-05-13T01:33:46.026Z,95946.06
2023-05-13T01:36:12.838Z,95939.97
2023-05-13T01:38:39.672Z,95938.31
2023-05-13T01:41:06.164Z,95939.34
2023-05-13T01:43:33.433Z,95943.06
2023-05-13T01:46:00.602Z,95933.38
2023-05-13T01:50:56.056Z,95940.13
2023-05-13T01:53:22.569Z,95936.53
2023-05-13T01:55:49.400Z,95946.34
2023-05-13T01:58:16.171Z,95947.41
2023-05-13T02:00:43.642Z,95952.47
2023-05-13T02:03:10.210Z,95954.69
2023-05-13T02:05:38.082Z,95958.59
2023-05-13T02:08:04.957Z,95962.28
2023-05-13T02:10:33.911Z,95959.66
2023-05-13T02:13:00.538Z,95959.63
2023-05-13T02:15:27.376Z,95958.69
2023-05-13T02:17:53.900Z,95960.06
2023-05-13T02:20:21.754Z,95962.59
2023-05-13T02:25:35.002Z,95958.34
2023-05-13T02:28:01.864Z,95960.44
2023-05-13T02:30:28.458Z,95957.63
2023-05-13T02:32:56.066Z,95958.38
2023-05-13T02:35:23.533Z,95964.72
2023-05-13T02:37:50.123Z,95961.44
2023-05-13T02:40:16.664Z,95963.22
2023-05-13T02:42:43.742Z,95963.78
2023-05-13T02:45:10.593Z,95970.63
2023-05-13T02:47:38.173Z,95969.97
2023-05-13T02:50:04.692Z,95965.88
2023-05-13T02:52:32.109Z,95967.78
2023-05-13T02:54:58.688Z,95973.56
2023-05-13T02:57:25.562Z,95968.81
2023-05-13T02:59:55.025Z,95969.03
2023-05-13T03:02:21.560Z,95973.03
2023-05-13T03:04:48.121Z,95976.63
2023-05-13T03:07:16.473Z,95977.78
2023-05-13T03:09:43.280Z,95980.13
2023-05-13T03:14:55.401Z,95982.25
2023-05-13T03:17:22.034Z,95991.19
2023-05-13T03:19:49.737Z,95985.16
2023-05-13T03:22:17.575Z,95988.09
2023-05-13T03:24:44.102Z,95994.81
2023-05-13T03:27:12.791Z,95991.44
2023-05-13T03:29:40.037Z,95982.81
2023-05-13T03:32:06.635Z,95992.41
2023-05-13T03:34:34.749Z,95996.59
2023-05-13T03:37:01.273Z,95996.63
2023-05-13T03:39:27.827Z,95997.56
2023-05-13T03:41:54.365Z,96004.50
2023-05-13T03:44:20.980Z,96012.00
2023-05-13T03:46:47.864Z,96008.91
2023-05-13T03:49:14.969Z,96012.47
2023-05-13T03:51:43.921Z,96015.69
2023-05-13T03:54:10.470Z,96011.72
2023-05-13T03:56:37.037Z,96016.41
2023-05-13T03:59:05.942Z,96012.72
2023-05-13T04:01:32.846Z,96011.16
2023-05-13T04:04:01.818Z,96006.34
2023-05-13T04:06:28.371Z,96017.19
2023-05-13T04:08:55.782Z,96010.59
2023-05-13T04:11:22.676Z,96017.25
2023-05-13T04:13:49.310Z,96016.34
2023-05-13T04:16:15.888Z,96029.53
2023-05-13T04:18:42.663Z,96020.59
2023-05-13T04:21:09.269Z,96013.72
2023-05-13T04:23:36.571Z,96024.22
2023-05-13T04:26:03.367Z,96025.88
2023-05-13T04:28:29.991Z,96025.25
2023-05-13T04:30:58.827Z,96028.63
2023-05-13T04:33:27.775Z,96028.25
2023-05-13T04:35:54.415Z,96037.84
2023-05-13T04:38:21.043Z,96036.81
2023-05-13T04:40:47.567Z,96048.41
2023-05-13T04:43:14.399Z,96029.91
2023-05-13T04:45:40.987Z,96033.38
2023-05-13T04:48:07.640Z,96035.28
2023-05-13T04:50:34.522Z,96044.22
2023-05-13T04:53:01.585Z,96032.00
2023-05-13T04:55:28.176Z,96040.34
2023-05-13T05:00:24.178Z,96049.19
2023-05-13T05:02:50.918Z,96051.81
2023-05-13T05:05:19.691Z,96046.47
2023-05-13T05:07:47.033Z,96049.13
2023-05-13T05:10:13.818Z,96053.69
2023-05-13T05:12:41.382Z,96062.66
2023-05-13T05:15:10.013Z,96060.25
2023-05-13T05:17:36.943Z,96058.41
2023-05-13T05:20:03.641Z,96060.72
2023-05-13T05:22:30.976Z,96069.53
2023-05-13T05:24:58.538Z,96061.72
2023-05-13T05:27:25.608Z,96071.00
2023-05-13T05:29:53.923Z,96075.84
2023-05-13T05:32:20.786Z,96073.84
2023-05-13T05:34:47.820Z,96075.78
2023-05-13T05:37:14.477Z,96075.91
2023-05-13T05:39:41.316Z,96077.69
2023-05-13T05:42:08.882Z,96074.50
2023-05-13T05:44:38.858Z,96077.91
2023-05-13T05:50:04.291Z,96084.03
2023-05-13T05:52:32.958Z,96086.13
2023-05-13T05:55:01.390Z,96095.59
2023-05-13T06:00:44.435Z,96095.31
2023-05-13T06:03:12.932Z,96103.22
2023-05-13T06:05:41.052Z,96094.13
2023-05-13T06:08:08.107Z,96094.47
2023-05-13T06:10:36.749Z,96091.88
2023-05-13T06:13:03.326Z,96092.81
2023-05-13T06:15:30.881Z,96091.22
2023-05-13T06:17:57.852Z,96090.63
2023-05-13T06:20:24.627Z,96097.66
2023-05-13T06:22:51.268Z,96092.72
2023-05-13T06:25:17.824Z,96091.66
2023-05-13T06:27:45.562Z,96090.75
2023-05-13T06:33:28.124Z,96087.97
2023-05-13T06:35:54.783Z,96092.97
2023-05-13T06:38:21.432Z,96094.44
2023-05-13T06:40:48.051Z,96095.44
2023-05-13T06:43:14.583Z,96101.31
2023-05-13T06:45:41.624Z,96099.75
2023-05-13T06:48:10.466Z,96096.97
2023-05-13T06:50:39.552Z,96100.06
2023-05-13T06:55:55.123Z,96106.81
2023-05-13T06:58:21.996Z,96102.78
2023-05-13T07:00:48.551Z,96101.84
2023-05-13T07:03:15.382Z,96107.91
2023-05-13T07:05:46.745Z,96095.09
2023-05-13T07:08:13.547Z,96096.28
2023-05-13T07:10:40.384Z,96106.47
2023-05-13T07:13:06.938Z,96094.25
2023-05-13T07:15:33.645Z,96097.66
2023-05-13T07:18:00.628Z,96106.00
2023-05-13T07:23:19.808Z,96104.66
2023-05-13T07:25:46.420Z,96104.91
2023-05-13T07:34:13.940Z,96100.06
2023-05-13T07:36:41.653Z,96098.59
2023-05-13T07:39:08.491Z,96095.66
2023-05-13T07:41:36.122Z,96105.78
2023-05-13T07:44:02.823Z,96097.47
2023-05-13T07:46:31.418Z,96105.03
2023-05-13T07:49:05.201Z,96095.34
2023-05-13T07:51:32.705Z,96104.56
2023-05-13T07:54:01.418Z,96101.97
2023-05-13T07:56:30.499Z,96103.34
2023-05-13T07:58:58.053Z,96104.53
2023-05-13T08:01:25.396Z,96103.28
2023-05-13T08:03:52.407Z,96101.53
2023-05-13T08:06:19.354Z,96099.50
2023-05-13T08:08:49.201Z,96103.16
2023-05-13T08:11:15.663Z,96102.53
2023-05-13T08:13:42.819Z,96106.47
2023-05-13T08:16:09.704Z,96100.97
2023-05-13T08:18:36.720Z,96090.22
2023-05-13T08:21:03.294Z,96093.41
2023-05-13T08:23:43.478Z,96097.09
2023-05-13T08:26:14.203Z,96098.75
2023-05-13T08:28:42.601Z,96102.81
2023-05-13T08:31:09.215Z,96108.44
2023-05-13T08:33:35.793Z,96103.47
2023-05-13T08:36:02.354Z,96100.50
2023-05-13T08:38:28.920Z,96106.00
2023-05-13T08:40:55.776Z,96105.75
2023-05-13T08:43:22.702Z,96111.00
2023-05-13T08:45:49.200Z,96106.38
2023-05-13T08:48:16.064Z,96107.47
2023-05-13T08:50:42.943Z,96108.44
2023-05-13T08:53:09.813Z,96103.16
2023-05-13T08:55:36.404Z,96107.00
2023-05-13T09:00:47.950Z,96110.09
2023-05-13T09:03:14.501Z,96113.41
2023-05-13T09:05:46.903Z,96108.06
2023-05-13T09:08:16.938Z,96106.97
2023-05-13T09:10:43.554Z,96104.66
2023-05-13T09:16:13.317Z,96097.34
2023-05-13T09:18:41.129Z,96103.91
2023-05-13T09:21:08.168Z,96096.25
2023-05-13T09:23:36.568Z,96090.59
2023-05-13T09:26:03.882Z,96082.09
2023-05-13T09:28:30.370Z,96089.84
2023-05-13T09:31:00.022Z,96089.47
2023-05-13T09:33:28.764Z,96091.56
2023-05-13T09:35:55.571Z,96084.03
2023-05-13T09:38:23.099Z,96086.28
2023-05-13T09:40:52.673Z,96088.41
2023-05-13T09:43:19.495Z,96080.72
2023-05-13T09:48:14.960Z,96081.00
2023-05-13T09:50:41.803Z,96086.09
2023-05-13T09:53:08.563Z,96086.16
2023-05-13T09:55:35.109Z,96085.41
2023-05-13T09:58:02.510Z,96085.28
2023-05-13T10:00:33.186Z,96084.09
2023-05-13T10:03:01.391Z,96080.13
2023-05-13T10:05:28.310Z,96080.03
2023-05-13T10:07:55.134Z,96077.06
2023-05-13T10:10:22.147Z,96076.53
2023-05-13T10:12:49.049Z,96071.16
2023-05-13T10:15:15.628Z,96076.47
2023-05-13T10:17:42.196Z,96083.84
2023-05-13T10:20:08.913Z,96072.31
2023-05-13T10:22:38.515Z,96069.72
2023-05-13T10:25:05.105Z,96079.78
2023-05-13T10:27:32.987Z,96075.13
2023-05-13T10:30:02.417Z,96075.91
2023-05-13T10:32:29.858Z,96071.56
2023-05-13T10:34:58.143Z,96063.69
2023-05-13T10:37:24.608Z,96066.94
2023-05-13T10:39:53.955Z,96072.25
2023-05-13T10:42:20.502Z,96077.66
2023-05-13T10:44:48.100Z,96070.78
2023-05-13T10:47:14.653Z,96073.22
2023-05-13T10:49:43.124Z,96067.91
2023-05-13T10:52:11.532Z,96062.53
2023-05-13T10:54:40.141Z,96062.06
2023-05-13T10:57:06.926Z,96055.72
2023-05-13T10:59:33.766Z,96057.19
2023-05-13T11:02:00.633Z,96062.06
2023-05-13T11:04:27.231Z,96057.63
2023-05-13T11:06:57.675Z,96054.97
2023-05-13T11:09:24.243Z,96056.47
2023-05-13T11:11:51.210Z,96053.78
2023-05-13T11:14:18.852Z,96046.97
2023-05-13T11:16:45.445Z,96046.66
2023-05-13T11:19:12.377Z,96041.44
2023-05-13T11:21:39.324Z,96042.94
2023-05-13T11:24:06.857Z,96044.25
2023-05-13T11:26:33.867Z,96054.50
2023-05-13T11:29:00.696Z,96042.81
2023-05-13T11:31:28.965Z,96040.38
2023-05-13T11:33:55.961Z,96041.34
2023-05-13T11:36:22.449Z,96035.47
2023-05-13T11:38:50.338Z,96033.28
2023-05-13T11:41:16.870Z,96035.97
2023-05-13T11:43:43.500Z,96037.06
2023-05-13T11:46:10.076Z,96030.16
2023-05-13T11:48:37.425Z,96030.78
2023-05-13T11:51:03.977Z,96036.66
2023-05-13T11:53:30.499Z,96043.47
2023-05-13T11:55:57.324Z,96044.53
2023-05-13T11:58:25.984Z,96039.34
2023-05-13T12:00:52.425Z,96033.22
2023-05-13T12:03:19.119Z,96033.75
2023-05-13T12:05:46.419Z,96040.41
2023-05-13T12:08:13.678Z,96042.06
2023-05-13T12:10:40.268Z,96034.91
2023-05-13T12:13:08.653Z,96026.22
2023-05-13T12:15:35.228Z,96023.31
2023-05-13T12:18:02.056Z,96018.91
2023-05-13T12:20:29.721Z,96021.03
2023-05-13T12:22:56.366Z,96024.97
2023-05-13T12:25:23.775Z,96028.56
2023-05-13T12:27:50.694Z,96023.72
2023-05-13T12:30:22.276Z,96024.53
2023-05-13T12:32:50.423Z,96026.88
2023-05-13T12:35:17.340Z,96027.38
2023-05-13T12:37:44.656Z,96028.44
2023-05-13T12:40:11.519Z,96026.72
2023-05-13T12:42:38.263Z,96026.16
2023-05-13T12:45:05.685Z,96028.88
2023-05-13T12:47:32.251Z,96025.72
2023-05-13T12:50:01.700Z,96033.78
2023-05-13T12:52:28.577Z,96038.13
2023-05-13T12:54:56.026Z,96043.84
2023-05-13T12:57:22.804Z,96050.00
2023-05-13T12:59:50.415Z,96051.66
2023-05-13T13:02:18.067Z,96052.16
2023-05-13T13:04:44.524Z,96058.38
2023-05-13T13:07:12.046Z,96056.53
2023-05-13T13:09:38.540Z,96056.66
2023-05-13T13:12:05.123Z,96055.28
2023-05-13T13:14:32.220Z,96055.84
2023-05-13T13:17:00.065Z,96056.97
2023-05-13T13:19:27.146Z,96063.22
2023-05-13T13:21:57.488Z,96057.41
2023-05-13T13:24:24.612Z,96062.00
2023-05-13T13:26:51.166Z,96060.22
2023-05-13T13:35:18.828Z,96056.34
2023-05-13T13:37:45.472Z,96056.03
2023-05-13T13:40:12.423Z,96048.00
2023-05-13T13:42:44.491Z,96059.69
2023-05-13T13:45:11.600Z,96054.63
2023-05-13T13:47:38.627Z,96060.03
2023-05-13T13:50:06.514Z,96049.16
2023-05-13T13:52:33.121Z,96057.09
2023-05-13T13:55:02.155Z,96057.31
2023-05-13T13:57:29.532Z,96061.47
2023-05-13T13:59:56.480Z,96062.66
2023-05-13T14:02:23.053Z,96053.78
2023-05-13T14:04:49.593Z,96061.44
2023-05-13T14:07:16.096Z,96057.28
2023-05-13T14:09:42.589Z,96048.22
2023-05-13T14:12:09.381Z,96055.41
2023-05-13T14:14:37.343Z,96049.16
2023-05-13T14:17:04.092Z,96040.75
2023-05-13T14:19:31.130Z,96046.97
2023-05-13T14:21:58.680Z,96048.59
2023-05-13T14:24:25.105Z,96050.03
2023-05-13T14:26:53.199Z,96055.88
2023-05-13T14:29:24.765Z,96062.56
2023-05-13T14:31:52.059Z,96059.69
2023-05-13T14:34:18.678Z,96058.59
2023-05-13T14:36:45.216Z,96061.41
2023-05-13T14:39:11.806Z,96057.03
2023-05-13T14:41:38.419Z,96062.06
2023-05-13T14:44:05.310Z,96058.47
2023-05-13T14:46:31.860Z,96057.75
2023-05-13T14:48:58.787Z,96062.25
2023-05-13T14:51:25.541Z,96052.56
2023-05-13T14:53:52.118Z,96052.00
2023-05-13T14:56:18.674Z,96049.06
2023-05-13T14:58:47.089Z,96054.41
2023-05-13T15:01:14.840Z,96048.84
2023-05-13T15:03:41.413Z,96048.69
2023-05-13T15:06:08.474Z,96054.13
2023-05-13T15:08:35.328Z,96055.13
2023-05-13T15:11:01.886Z,96052.56
2023-05-13T15:13:30.902Z,96043.66
2023-05-13T15:15:58.462Z,96040.19
2023-05-13T15:18:25.008Z,96040.13
2023-05-13T15:20:54.301Z,96031.91
2023-05-13T15:23:21.040Z,96040.88
2023-05-13T15:25:47.961Z,96038.78
2023-05-13T15:28:14.556Z,96032.78
2023-05-13T15:30:41.162Z,96041.97
2023-05-13T15:33:07.945Z,96039.88
2023-05-13T15:35:34.475Z,96038.13
2023-05-13T15:38:03.044Z,96044.22
2023-05-13T15:40:32.005Z,96040.38
2023-05-13T15:43:00.612Z,96043.25
2023-05-13T15:45:27.373Z,96050.31
2023-05-13T15:47:54.216Z,96056.69
2023-05-13T15:50:21.208Z,96037.94
2023-05-13T15:52:48.175Z,96047.97
2023-05-13T15:55:14.695Z,96041.28
2023-05-13T15:57:41.215Z,96038.50
2023-05-13T16:00:08.018Z,96044.66
2023-05-13T16:02:34.947Z,96050.63
2023-05-13T16:05:01.622Z,96043.03
2023-05-13T16:07:28.660Z,96050.06
2023-05-13T16:09:55.397Z,96058.44
2023-05-13T16:12:22.433Z,96053.38
2023-05-13T16:14:52.046Z,96059.97
2023-05-13T16:17:18.853Z,96069.38
2023-05-13T16:19:45.683Z,96064.78
2023-05-13T16:22:12.282Z,96064.06
2023-05-13T16:24:38.862Z,96063.31
2023-05-13T16:27:05.435Z,96068.34
2023-05-13T16:29:31.929Z,96075.06
2023-05-13T16:31:58.499Z,96069.84
2023-05-13T16:34:27.002Z,96072.03
2023-05-13T16:36:53.873Z,96071.22
2023-05-13T16:39:20.908Z,96068.78
2023-05-13T16:41:47.512Z,96074.16
2023-05-13T16:44:16.277Z,96072.34
2023-05-13T16:46:43.026Z,96066.56
2023-05-13T16:49:09.606Z,96068.41
2023-05-13T16:51:36.970Z,96072.13
2023-05-13T16:54:03.455Z,96067.50
2023-05-13T16:56:30.254Z,96067.25
2023-05-13T16:58:57.096Z,96069.75
2023-05-13T17:01:23.741Z,96075.72
2023-05-13T17:03:50.312Z,96072.84
2023-05-13T17:06:17.323Z,96074.63
2023-05-13T17:08:43.917Z,96067.56
2023-05-13T17:11:10.690Z,96074.75
2023-05-13T17:13:37.429Z,96062.09
2023-05-13T17:16:06.418Z,96066.63
2023-05-13T17:18:34.040Z,96070.09
2023-05-13T17:21:00.883Z,96068.75
2023-05-13T17:23:29.629Z,96073.13
2023-05-13T17:25:56.219Z,96074.75
2023-05-13T17:28:22.692Z,96076.88
2023-05-13T17:30:50.601Z,96072.00
2023-05-13T17:33:17.133Z,96076.66
2023-05-13T17:35:43.722Z,96076.00
2023-05-13T17:38:10.254Z,96080.25
2023-05-13T17:40:38.353Z,96075.47
2023-05-13T17:43:05.003Z,96076.25
2023-05-13T17:45:31.828Z,96070.25
2023-05-13T17:47:58.368Z,96070.16
2023-05-13T17:50:26.013Z,96077.78
2023-05-13T17:52:53.442Z,96072.31
2023-05-13T17:55:20.038Z,96087.28
2023-05-13T17:57:48.994Z,96086.44
2023-05-13T18:00:17.237Z,96085.06
2023-05-13T18:02:43.755Z,96084.00
2023-05-13T18:05:10.475Z,96076.00
2023-05-13T18:07:45.959Z,96088.97
2023-05-13T18:10:14.327Z,96086.13
2023-05-13T18:12:40.756Z,96082.91
2023-05-13T18:15:07.569Z,96084.09
2023-05-13T18:17:36.527Z,96088.88
2023-05-13T18:20:02.998Z,96096.31
2023-05-13T18:25:20.538Z,96092.34
2023-05-13T18:27:47.141Z,96087.06
2023-05-13T18:30:14.024Z,96092.56
2023-05-13T18:32:40.530Z,96101.78
2023-05-13T18:35:08.005Z,96092.06
2023-05-13T18:37:34.568Z,96090.56
2023-05-13T18:40:03.492Z,96104.81
2023-05-13T18:42:30.336Z,96103.41
2023-05-13T18:44:57.217Z,96103.41
2023-05-13T18:47:23.681Z,96101.59
2023-05-13T18:49:50.623Z,96107.16
2023-05-13T18:52:17.564Z,96103.78
2023-05-13T18:54:46.249Z,96108.06
2023-05-13T18:57:13.049Z,96099.06
2023-05-13T18:59:40.362Z,96105.22
2023-05-13T19:02:28.238Z,96103.63
2023-05-13T19:04:55.028Z,96101.75
2023-05-13T19:07:22.480Z,96110.97
2023-05-13T19:09:49.139Z,96105.53
2023-05-13T19:12:15.746Z,96106.38
2023-05-13T19:14:43.345Z,96113.63
2023-05-13T19:17:09.990Z,96114.97
2023-05-13T19:19:36.615Z,96124.13
2023-05-13T19:24:48.263Z,96126.16
2023-05-13T19:27:14.796Z,96123.28
2023-05-13T19:29:41.382Z,96125.66
2023-05-13T19:32:08.274Z,96130.91
2023-05-13T19:34:35.176Z,96133.56
2023-05-13T19:37:01.787Z,96135.75
2023-05-13T19:39:28.831Z,96138.22
2023-05-13T19:41:55.818Z,96139.88
2023-05-13T19:44:22.420Z,96138.13
2023-05-13T19:46:49.465Z,96145.97
2023-05-13T19:49:16.346Z,96140.34
2023-05-13T19:51:42.864Z,96146.09
2023-05-13T19:54:09.968Z,96143.50
2023-05-13T19:56:36.413Z,96146.75
2023-05-13T19:59:03.368Z,96148.47
2023-05-13T20:01:42.998Z,96140.44
2023-05-13T20:04:10.134Z,96140.16
2023-05-13T20:06:38.180Z,96143.06
2023-05-13T20:09:10.653Z,96143.31
2023-05-13T20:11:37.662Z,96136.88
2023-05-13T20:14:04.554Z,96137.00
2023-05-13T20:16:31.202Z,96137.13
2023-05-13T20:18:58.246Z,96144.94
2023-05-13T20:21:25.219Z,96146.47
2023-05-13T20:23:52.519Z,96146.03
2023-05-13T20:26:19.753Z,96141.00
2023-05-13T20:28:46.447Z,96143.81
2023-05-13T20:31:13.099Z,96140.16
2023-05-13T20:33:39.671Z,96138.72
2023-05-13T20:36:06.747Z,96139.38
2023-05-13T20:38:33.635Z,96137.44
2023-05-13T20:41:00.252Z,96150.66
2023-05-13T20:43:26.814Z,96148.63
2023-05-13T20:45:54.027Z,96145.97
2023-05-13T20:48:21.472Z,96148.44
2023-05-13T20:50:48.023Z,96150.03
2023-05-13T20:53:14.649Z,96149.69
2023-05-13T20:55:41.420Z,96138.34
2023-05-13T21:01:04.498Z,96140.47
2023-05-13T21:03:31.928Z,96136.88
2023-05-13T21:05:58.894Z,96142.78
2023-05-13T21:08:25.486Z,96141.00
2023-05-13T21:10:52.291Z,96144.81
2023-05-13T21:13:19.110Z,96144.16
2023-05-13T21:15:45.872Z,96143.19
2023-05-13T21:18:12.570Z,96146.06
2023-05-13T21:20:39.271Z,96142.59
2023-05-13T21:23:05.935Z,96147.22
2023-05-13T21:25:32.763Z,96147.53
2023-05-13T21:28:01.420Z,96151.88
2023-05-13T21:30:28.237Z,96151.03
2023-05-13T21:36:01.827Z,96153.19
2023-05-13T21:38:28.521Z,96155.63
2023-05-13T21:40:55.922Z,96153.09
2023-05-13T21:43:24.961Z,96149.31
2023-05-13T21:45:51.456Z,96151.00
2023-05-13T21:48:18.099Z,96156.13
2023-05-13T21:50:44.877Z,96144.56
2023-05-13T21:53:11.622Z,96149.94
2023-05-13T21:55:40.367Z,96142.78
2023-05-13T21:58:07.292Z,96151.53
2023-05-13T22:00:34.124Z,96138.63
2023-05-13T22:03:00.916Z,96137.81
2023-05-13T22:05:28.614Z,96133.97
2023-05-13T22:07:55.236Z,96135.91
2023-05-13T22:10:22.172Z,96132.50
2023-05-13T22:12:49.994Z,96137.44
2023-05-13T22:15:16.553Z,96139.75
2023-05-13T22:17:43.287Z,96139.13
2023-05-13T22:20:09.897Z,96138.63
2023-05-13T22:22:36.876Z,96147.28
2023-05-13T22:25:03.789Z,96138.41
2023-05-13T22:27:30.614Z,96136.47
2023-05-13T22:32:41.439Z,96143.59
2023-05-13T22:35:08.080Z,96144.69
2023-05-13T22:37:37.271Z,96133.97
2023-05-13T22:40:04.109Z,96140.59
2023-05-13T22:42:31.083Z,96143.03
2023-05-13T22:44:57.891Z,96136.88
2023-05-13T22:47:25.319Z,96134.03
2023-05-13T22:49:54.083Z,96134.78
2023-05-13T22:52:20.912Z,96125.59
2023-05-13T22:54:47.390Z,96131.03
2023-05-13T22:57:13.948Z,96138.75
2023-05-13T22:59:40.750Z,96131.09
2023-05-13T23:02:07.576Z,96130.38
2023-05-13T23:04:35.170Z,96136.56
2023-05-13T23:07:02.002Z,96128.84
2023-05-13T23:09:28.538Z,96135.88
2023-05-13T23:11:56.144Z,96134.22
2023-05-13T23:14:22.727Z,96131.63
2023-05-13T23:16:49.201Z,96134.88
2023-05-13T23:19:15.781Z,96126.75
2023-05-13T23:21:42.457Z,96123.19
2023-05-13T23:24:09.121Z,96123.56
2023-05-13T23:26:36.048Z,96123.50
2023-05-13T23:31:55.627Z,96116.34
2023-05-13T23:34:22.432Z,96114.13
2023-05-13T23:36:49.275Z,96114.16
2023-05-13T23:39:16.080Z,96118.28
2023-05-13T23:41:42.648Z,96114.28
2023-05-13T23:47:18.022Z,96104.91
2023-05-13T23:49:44.751Z,96105.69
2023-05-13T23:52:11.268Z,96104.06
2023-05-13T23:54:37.822Z,96103.88
2023-05-13T23:57:05.279Z,96103.66
2023-05-13T23:59:32.809Z,96107.25
